Time;durP1;ratioP1;P1;durP2;ratioP2;P2;SDS_P1;SDS_P2;PMS_P1;PMS_P2;Temp;Humidity;BMP_temperature;BMP_pressure;BME280_temperature;BME280_humidity;BME280_pressure;Samples;Min_cycle;Max_cycle;Signal;HPM_P1;HPM_P2
2023/06/20 00:01:59;;;;;;;11.73;10.05;;;;;;;;;;5116085;28;20058;-74
2023/06/20 00:04:25;;;;;;;14.80;10.30;;;;;;;;;;5102341;28;20028;-71
2023/06/20 00:06:50;;;;;;;15.60;10.05;;;;;;;;;;5095598;28;20028;-74
2023/06/20 00:09:15;;;;;;;12.45;10.23;;;;;;;;;;5095331;28;20032;-74
2023/06/20 00:11:41;;;;;;;13.90;10.30;;;;;;;;;;5095617;28;20028;-74
2023/06/20 00:14:06;;;;;;;14.52;9.40;;;;;;;;;;5095536;28;20027;-73
2023/06/20 00:16:32;;;;;;;14.27;10.05;;;;;;;;;;5095462;28;20032;-67
2023/06/20 00:18:57;;;;;;;14.25;10.50;;;;;;;;;;5095555;28;20115;-65
2023/06/20 00:21:25;;;;;;;15.00;11.15;;;;;;;;;;5095382;28;20107;-68
2023/06/20 00:23:52;;;;;;;12.32;10.70;;;;;;;;;;5094899;28;20034;-70
2023/06/20 00:26:17;;;;;;;16.38;10.68;;;;;;;;;;5095361;28;20032;-71
2023/06/20 00:28:43;;;;;;;14.05;10.55;;;;;;;;;;5095230;28;20538;-71
2023/06/20 00:31:09;;;;;;;14.88;10.48;;;;;;;;;;5095318;28;20419;-71
2023/06/20 00:33:36;;;;;;;15.23;10.60;;;;;;;;;;5095228;28;20028;-73
2023/06/20 00:36:02;;;;;;;14.73;10.88;;;;;;;;;;5076927;28;20077;-71
2023/06/20 00:38:29;;;;;;;15.75;11.82;;;;;;;;;;5095217;28;20032;-69
2023/06/20 00:40:57;;;;;;;15.60;10.68;;;;;;;;;;5115602;28;20080;-73
2023/06/20 00:43:23;;;;;;;13.98;10.70;;;;;;;;;;5115248;28;20051;-74
2023/06/20 00:45:49;;;;;;;15.25;11.68;;;;;;;;;;5115037;28;20098;-72
2023/06/20 00:48:16;;;;;;;16.73;10.82;;;;;;;;;;5115194;28;20032;-72
2023/06/20 00:50:42;;;;;;;15.30;11.27;;;;;;;;;;5115301;28;20024;-71
2023/06/20 00:53:07;;;;;;;15.10;10.82;;;;;;;;;;5114481;28;20054;-72
2023/06/20 00:55:35;;;;;;;14.52;11.02;;;;;;;;;;5115339;28;20031;-75
2023/06/20 00:58:02;;;;;;;17.60;11.52;;;;;;;;;;5115434;28;20054;-75
2023/06/20 01:00:32;;;;;;;22.00;11.35;;;;;;;;;;5107404;28;20052;-73
2023/06/20 01:03:01;;;;;;;;;;;;;;;;;;5092097;28;20424;-72
2023/06/20 01:05:28;;;;;;;15.35;11.40;;;;;;;;;;5075295;28;19919;-76
2023/06/20 01:08:12;;;;;;;16.08;10.60;;;;;;;;;;5093101;28;20055;-75
2023/06/20 01:10:52;;;;;;;14.48;10.90;;;;;;;;;;5093054;28;20095;-75
2023/06/20 01:13:37;;;;;;;15.32;11.50;;;;;;;;;;5093114;28;20527;-75
2023/06/20 01:16:10;;;;;;;13.13;10.65;;;;;;;;;;5090706;28;20024;-75
2023/06/20 01:18:54;;;;;;;14.10;10.65;;;;;;;;;;5093170;28;20107;-73
2023/06/20 01:21:29;;;;;;;18.10;11.52;;;;;;;;;;5092826;28;20732;-75
2023/06/20 01:24:19;;;;;;;14.88;11.10;;;;;;;;;;5093006;28;20073;-75
2023/06/20 01:26:45;;;;;;;;;;;;;;;;;;5089866;28;20024;-74
2023/06/20 01:29:28;;;;;;;14.43;10.15;;;;;;;;;;5092643;28;19919;-75
2023/06/20 01:31:55;;;;;;;16.27;10.98;;;;;;;;;;5092100;28;20020;-75
2023/06/20 01:34:29;;;;;;;15.35;11.05;;;;;;;;;;5094276;28;20369;-66
2023/06/20 01:36:59;;;;;;;16.23;11.25;;;;;;;;;;5093914;28;20028;-69
2023/06/20 01:39:29;;;;;;;;;;;;;;;;;;5103175;28;20027;-75
2023/06/20 01:41:57;;;;;;;;;;;;;;;;;;5114908;28;19965;-73
2023/06/20 01:44:25;;;;;;;13.85;10.85;;;;;;;;;;5114457;28;20325;-75
2023/06/20 01:46:53;;;;;;;17.48;12.68;;;;;;;;;;5114234;28;20127;-75
2023/06/20 01:49:19;;;;;;;14.85;11.68;;;;;;;;;;5114343;28;20381;-75
2023/06/20 01:51:47;;;;;;;16.98;11.27;;;;;;;;;;5114103;28;20016;-75
2023/06/20 01:54:15;;;;;;;14.75;12.52;;;;;;;;;;5114410;28;20021;-75
2023/06/20 01:56:43;;;;;;;14.88;11.32;;;;;;;;;;5114213;28;20125;-74
2023/06/20 01:59:10;;;;;;;15.02;12.68;;;;;;;;;;5114220;28;20019;-74
2023/06/20 02:01:36;;;;;;;17.85;12.50;;;;;;;;;;5114119;28;20031;-73
2023/06/20 02:04:03;;;;;;;14.27;12.30;;;;;;;;;;5102620;28;20035;-75
2023/06/20 02:06:29;;;;;;;14.70;13.00;;;;;;;;;;5093293;28;20106;-75
2023/06/20 02:08:57;;;;;;;13.95;11.88;;;;;;;;;;5093607;28;20516;-75
2023/06/20 02:11:23;;;;;;;15.35;12.73;;;;;;;;;;5093497;28;20036;-74
2023/06/20 02:13:49;;;;;;;15.05;12.05;;;;;;;;;;5093603;28;20530;-75
2023/06/20 02:16:17;;;;;;;15.98;12.70;;;;;;;;;;5093559;28;20032;-75
2023/06/20 02:18:42;;;;;;;17.35;13.10;;;;;;;;;;5093567;28;20020;-74
2023/06/20 02:21:14;;;;;;;13.95;11.88;;;;;;;;;;5093351;28;20390;-75
2023/06/20 02:23:41;;;;;;;15.70;12.55;;;;;;;;;;5093204;28;20035;-74
2023/06/20 02:26:10;;;;;;;14.02;11.85;;;;;;;;;;5093388;28;20487;-74
2023/06/20 02:28:44;;;;;;;15.43;12.63;;;;;;;;;;5093257;28;20073;-73
2023/06/20 02:31:14;;;;;;;14.18;12.68;;;;;;;;;;5093264;28;20123;-75
2023/06/20 02:33:41;;;;;;;17.90;12.68;;;;;;;;;;5093245;28;20119;-74
2023/06/20 02:36:08;;;;;;;15.45;12.18;;;;;;;;;;5092975;28;20534;-74
2023/06/20 02:38:34;;;;;;;14.65;12.85;;;;;;;;;;5094205;28;20488;-75
2023/06/20 02:40:59;;;;;;;15.93;12.32;;;;;;;;;;5113359;28;20032;-75
2023/06/20 02:43:25;;;;;;;14.85;12.40;;;;;;;;;;5113404;28;20021;-75
2023/06/20 02:45:58;;;;;;;16.52;12.25;;;;;;;;;;5112692;28;20051;-75
2023/06/20 02:48:28;;;;;;;18.25;13.07;;;;;;;;;;5113111;28;20024;-75
2023/06/20 02:51:07;;;;;;;14.57;12.60;;;;;;;;;;5113416;28;20434;-74
2023/06/20 02:53:44;;;;;;;18.57;12.33;;;;;;;;;;5113451;28;20050;-74
2023/06/20 02:56:12;;;;;;;15.60;12.00;;;;;;;;;;5113286;28;20042;-74
2023/06/20 02:58:44;;;;;;;15.60;13.05;;;;;;;;;;5094897;28;20023;-75
2023/06/20 03:01:10;;;;;;;17.95;13.88;;;;;;;;;;5113259;28;20080;-74
2023/06/20 03:03:41;;;;;;;15.02;12.85;;;;;;;;;;5106069;28;20485;-74
2023/06/20 03:06:08;;;;;;;18.58;13.23;;;;;;;;;;5092784;28;20111;-75
2023/06/20 03:08:38;;;;;;;15.68;13.00;;;;;;;;;;5092722;28;20436;-76
2023/06/20 03:11:04;;;;;;;15.68;12.98;;;;;;;;;;5092922;28;20069;-75
2023/06/20 03:13:29;;;;;;;16.40;13.38;;;;;;;;;;5092804;28;20428;-75
2023/06/20 03:15:57;;;;;;;16.63;12.32;;;;;;;;;;5095019;28;20027;-75
2023/06/20 03:18:24;;;;;;;16.17;12.32;;;;;;;;;;5096615;28;20052;-75
2023/06/20 03:20:49;;;;;;;17.05;12.88;;;;;;;;;;5096915;28;20024;-75
2023/06/20 03:23:16;;;;;;;16.55;13.75;;;;;;;;;;5096634;28;20024;-75
2023/06/20 03:25:42;;;;;;;16.00;12.77;;;;;;;;;;5096706;28;20055;-75
2023/06/20 03:28:08;;;;;;;29.13;13.73;;;;;;;;;;5096704;28;20420;-75
2023/06/20 03:30:33;;;;;;;24.63;14.68;;;;;;;;;;5096594;28;20024;-73
2023/06/20 03:32:59;;;;;;;26.40;15.10;;;;;;;;;;5096474;28;20049;-75
2023/06/20 03:35:24;;;;;;;19.60;14.00;;;;;;;;;;5096437;28;20027;-74
2023/06/20 03:37:50;;;;;;;16.73;13.90;;;;;;;;;;5096367;28;20057;-75
2023/06/20 03:40:16;;;;;;;26.23;15.57;;;;;;;;;;5112070;28;20112;-75
2023/06/20 03:42:41;;;;;;;23.65;14.57;;;;;;;;;;5116871;28;20036;-74
2023/06/20 03:45:08;;;;;;;22.10;13.65;;;;;;;;;;5098273;28;20026;-75
2023/06/20 03:47:34;;;;;;;18.50;13.18;;;;;;;;;;5116500;28;20028;-75
2023/06/20 03:49:59;;;;;;;20.80;13.50;;;;;;;;;;5116519;28;20119;-75
2023/06/20 03:52:25;;;;;;;25.05;13.77;;;;;;;;;;5116722;28;20399;-75
2023/06/20 03:54:50;;;;;;;17.45;13.93;;;;;;;;;;5116593;28;20071;-73
2023/06/20 03:57:15;;;;;;;23.90;13.90;;;;;;;;;;5116518;28;20042;-75
2023/06/20 03:59:41;;;;;;;18.70;12.93;;;;;;;;;;5116544;28;20085;-75
2023/06/20 04:02:06;;;;;;;18.38;13.80;;;;;;;;;;5116433;28;20055;-75
2023/06/20 04:04:32;;;;;;;20.40;12.95;;;;;;;;;;5083344;28;20028;-75
2023/06/20 04:06:58;;;;;;;23.08;13.52;;;;;;;;;;5095963;28;20032;-75
2023/06/20 04:09:26;;;;;;;23.08;13.50;;;;;;;;;;5096028;28;20016;-72
2023/06/20 04:11:52;;;;;;;17.65;12.50;;;;;;;;;;5095671;28;20214;-75
2023/06/20 04:14:17;;;;;;;18.77;14.10;;;;;;;;;;5095713;28;20020;-75
2023/06/20 04:16:44;;;;;;;16.67;14.68;;;;;;;;;;5095559;28;20081;-74
2023/06/20 04:19:09;;;;;;;17.92;14.63;;;;;;;;;;5095799;28;20051;-73
2023/06/20 04:21:35;;;;;;;17.70;14.73;;;;;;;;;;5095539;28;20071;-73
2023/06/20 04:24:00;;;;;;;17.55;13.90;;;;;;;;;;5095304;28;20096;-73
2023/06/20 04:26:26;;;;;;;19.52;15.23;;;;;;;;;;5094322;28;20028;-74
2023/06/20 04:28:51;;;;;;;17.02;14.57;;;;;;;;;;5095361;28;20138;-75
2023/06/20 04:31:16;;;;;;;17.65;13.50;;;;;;;;;;5095430;28;20047;-74
2023/06/20 04:33:45;;;;;;;18.05;14.73;;;;;;;;;;5094891;28;20389;-72
2023/06/20 04:36:13;;;;;;;18.75;14.15;;;;;;;;;;5095304;28;20020;-75
2023/06/20 04:38:42;;;;;;;18.45;14.77;;;;;;;;;;5097092;28;20380;-75
2023/06/20 04:41:08;;;;;;;15.90;14.13;;;;;;;;;;5115727;28;20023;-70
2023/06/20 04:43:35;;;;;;;19.65;14.98;;;;;;;;;;5115676;28;20098;-73
2023/06/20 04:46:01;;;;;;;17.15;14.70;;;;;;;;;;5115345;28;20036;-73
2023/06/20 04:48:28;;;;;;;17.50;14.88;;;;;;;;;;5115402;28;20027;-75
2023/06/20 04:50:55;;;;;;;17.23;14.95;;;;;;;;;;5115507;28;20023;-74
2023/06/20 04:53:22;;;;;;;19.20;14.15;;;;;;;;;;5115186;28;20030;-73
2023/06/20 04:55:48;;;;;;;16.75;14.90;;;;;;;;;;5115236;28;20027;-75
2023/06/20 04:58:14;;;;;;;17.65;14.77;;;;;;;;;;5115402;28;20076;-74
2023/06/20 05:00:39;;;;;;;17.92;14.48;;;;;;;;;;5115010;28;20027;-76
2023/06/20 05:03:05;;;;;;;17.80;14.63;;;;;;;;;;5112385;28;20024;-74
2023/06/20 05:05:31;;;;;;;16.63;13.98;;;;;;;;;;5094780;28;20065;-75
2023/06/20 05:07:56;;;;;;;20.50;14.73;;;;;;;;;;5094631;28;20423;-72
2023/06/20 05:10:23;;;;;;;17.63;13.77;;;;;;;;;;5094754;28;20020;-74
2023/06/20 05:12:48;;;;;;;22.17;16.20;;;;;;;;;;5094753;28;20032;-75
2023/06/20 05:15:14;;;;;;;23.75;14.63;;;;;;;;;;5094325;28;20039;-74
2023/06/20 05:17:39;;;;;;;18.15;15.10;;;;;;;;;;5094463;28;20027;-75
2023/06/20 05:20:06;;;;;;;21.05;14.48;;;;;;;;;;5094551;28;20028;-75
2023/06/20 05:22:33;;;;;;;16.98;13.60;;;;;;;;;;5094406;28;20032;-73
2023/06/20 05:24:59;;;;;;;18.88;13.63;;;;;;;;;;5094077;28;20036;-75
2023/06/20 05:27:24;;;;;;;18.95;14.38;;;;;;;;;;5094167;28;20028;-75
2023/06/20 05:29:50;;;;;;;16.95;13.82;;;;;;;;;;5094047;28;20017;-75
2023/06/20 05:32:15;;;;;;;19.10;14.15;;;;;;;;;;5094346;28;20491;-73
2023/06/20 05:34:40;;;;;;;15.52;13.88;;;;;;;;;;5094227;28;20032;-75
2023/06/20 05:37:06;;;;;;;17.35;14.88;;;;;;;;;;5094068;28;20036;-75
2023/06/20 05:39:31;;;;;;;18.83;14.05;;;;;;;;;;5103385;28;20042;-74
2023/06/20 05:41:57;;;;;;;20.50;14.60;;;;;;;;;;5114492;28;20077;-75
2023/06/20 05:44:22;;;;;;;17.15;14.65;;;;;;;;;;5114091;28;20042;-75
2023/06/20 05:46:48;;;;;;;16.75;14.02;;;;;;;;;;5114134;28;20036;-75
2023/06/20 05:49:15;;;;;;;16.35;14.60;;;;;;;;;;5114359;28;20026;-76
2023/06/20 05:51:44;;;;;;;19.67;13.88;;;;;;;;;;5114209;28;20472;-76
2023/06/20 05:54:10;;;;;;;22.42;13.88;;;;;;;;;;5114113;28;20024;-75
2023/06/20 05:56:35;;;;;;;17.40;13.90;;;;;;;;;;5114169;28;20388;-75
2023/06/20 05:59:01;;;;;;;19.65;14.82;;;;;;;;;;5113917;28;20032;-75
2023/06/20 06:01:26;;;;;;;18.95;14.52;;;;;;;;;;5114045;28;20023;-75
2023/06/20 06:03:52;;;;;;;19.70;15.35;;;;;;;;;;5104746;28;20098;-75
2023/06/20 06:06:17;;;;;;;20.40;14.38;;;;;;;;;;5093518;28;20311;-74
2023/06/20 06:08:43;;;;;;;24.05;15.27;;;;;;;;;;5093525;28;20466;-75
2023/06/20 06:11:09;;;;;;;17.73;13.68;;;;;;;;;;5093434;28;20388;-75
2023/06/20 06:13:34;;;;;;;18.15;12.93;;;;;;;;;;5093132;28;20064;-74
2023/06/20 06:15:59;;;;;;;22.52;14.18;;;;;;;;;;5093364;28;20073;-75
2023/06/20 06:18:25;;;;;;;18.55;13.77;;;;;;;;;;5093481;28;20490;-75
2023/06/20 06:20:51;;;;;;;24.52;14.30;;;;;;;;;;5093535;28;20381;-75
2023/06/20 06:23:16;;;;;;;21.98;13.80;;;;;;;;;;5092489;28;20457;-74
2023/06/20 06:25:44;;;;;;;20.42;14.02;;;;;;;;;;5093160;28;20027;-70
2023/06/20 06:28:10;;;;;;;22.35;14.73;;;;;;;;;;5092838;28;20116;-70
2023/06/20 06:30:36;;;;;;;23.50;13.15;;;;;;;;;;5093311;28;20115;-70
2023/06/20 06:33:03;;;;;;;18.30;12.93;;;;;;;;;;5093122;28;20032;-69
2023/06/20 06:35:30;;;;;;;19.60;12.52;;;;;;;;;;5082970;28;20382;-78
2023/06/20 06:37:57;;;;;;;22.13;13.02;;;;;;;;;;5090872;28;20043;-78
2023/06/20 06:40:23;;;;;;;18.10;13.02;;;;;;;;;;5109450;28;20019;-78
2023/06/20 06:42:48;;;;;;;18.77;12.63;;;;;;;;;;5104820;28;20561;-72
2023/06/20 06:45:14;;;;;;;19.63;12.85;;;;;;;;;;5077938;28;20082;-78
2023/06/20 06:47:39;;;;;;;25.65;13.82;;;;;;;;;;5090017;28;20119;-78
2023/06/20 06:50:06;;;;;;;15.48;12.02;;;;;;;;;;5085095;28;20373;-77
2023/06/20 06:52:34;;;;;;;22.13;12.60;;;;;;;;;;5092516;28;20028;-77
2023/06/20 06:55:00;;;;;;;18.38;12.60;;;;;;;;;;5074213;28;20024;-76
2023/06/20 06:57:26;;;;;;;32.25;14.85;;;;;;;;;;5092584;28;20031;-75
2023/06/20 06:59:51;;;;;;;17.70;12.40;;;;;;;;;;5092560;28;20020;-75
2023/06/20 07:02:17;;;;;;;23.75;12.63;;;;;;;;;;5090296;28;20020;-75
2023/06/20 07:04:42;;;;;;;20.33;13.00;;;;;;;;;;5092374;28;20024;-76
2023/06/20 07:07:07;;;;;;;25.77;14.98;;;;;;;;;;5092436;28;20062;-76
2023/06/20 07:09:33;;;;;;;18.67;13.13;;;;;;;;;;5092289;28;20442;-76
2023/06/20 07:11:58;;;;;;;21.58;12.68;;;;;;;;;;5092387;28;20466;-75
2023/06/20 07:14:24;;;;;;;18.27;12.63;;;;;;;;;;5092445;28;20022;-76
2023/06/20 07:16:49;;;;;;;18.30;12.13;;;;;;;;;;5092252;28;20025;-76
2023/06/20 07:19:15;;;;;;;21.35;12.48;;;;;;;;;;5092286;28;20062;-75
2023/06/20 07:21:40;;;;;;;14.73;11.82;;;;;;;;;;5092468;28;20055;-73
2023/06/20 07:24:06;;;;;;;16.60;13.13;;;;;;;;;;5092008;28;20429;-76
2023/06/20 07:26:31;;;;;;;16.50;12.45;;;;;;;;;;5092148;28;20489;-76
2023/06/20 07:28:57;;;;;;;17.08;12.32;;;;;;;;;;5092183;28;20385;-76
2023/06/20 07:31:22;;;;;;;14.32;12.25;;;;;;;;;;5092189;28;20094;-76
2023/06/20 07:33:47;;;;;;;16.90;11.32;;;;;;;;;;5092144;28;20389;-76
2023/06/20 07:36:13;;;;;;;12.65;11.32;;;;;;;;;;5092087;28;20458;-75
2023/06/20 07:38:39;;;;;;;12.98;11.52;;;;;;;;;;5093568;28;20060;-76
2023/06/20 07:41:04;;;;;;;12.40;11.00;;;;;;;;;;5112472;28;20031;-76
2023/06/20 07:43:30;;;;;;;13.10;11.75;;;;;;;;;;5112429;28;20111;-76
2023/06/20 07:45:55;;;;;;;17.20;11.88;;;;;;;;;;5112249;28;20043;-72
2023/06/20 07:48:27;;;;;;;12.73;11.00;;;;;;;;;;5094085;28;20126;-70
2023/06/20 07:50:52;;;;;;;17.98;11.38;;;;;;;;;;5112244;28;20106;-71
2023/06/20 07:53:18;;;;;;;14.05;10.73;;;;;;;;;;5098165;28;20516;-71
2023/06/20 07:55:43;;;;;;;18.50;11.10;;;;;;;;;;5091921;28;20020;-71
2023/06/20 07:58:09;;;;;;;18.38;11.10;;;;;;;;;;5092049;28;20162;-71
2023/06/20 08:00:34;;;;;;;16.38;10.88;;;;;;;;;;5091961;28;20046;-71
2023/06/20 08:02:59;;;;;;;16.20;10.77;;;;;;;;;;5095664;28;20122;-70
2023/06/20 08:05:25;;;;;;;11.77;9.82;;;;;;;;;;5095840;28;20491;-71
2023/06/20 08:07:50;;;;;;;14.32;10.68;;;;;;;;;;5095441;28;20085;-71
2023/06/20 08:10:16;;;;;;;16.90;10.45;;;;;;;;;;5095553;28;20020;-71
2023/06/20 08:12:41;;;;;;;16.02;10.88;;;;;;;;;;5095533;28;20110;-71
2023/06/20 08:15:07;;;;;;;11.00;9.80;;;;;;;;;;5095522;28;20025;-71
2023/06/20 08:17:33;;;;;;;13.30;11.18;;;;;;;;;;5095452;28;20040;-71
2023/06/20 08:19:59;;;;;;;13.73;10.35;;;;;;;;;;5095480;28;20032;-77
2023/06/20 08:22:26;;;;;;;14.07;11.15;;;;;;;;;;5095197;28;20031;-74
2023/06/20 08:24:51;;;;;;;17.02;11.75;;;;;;;;;;5091388;28;20040;-75
2023/06/20 08:27:17;;;;;;;13.38;11.13;;;;;;;;;;5095145;28;20035;-78
2023/06/20 08:29:42;;;;;;;20.70;12.68;;;;;;;;;;5095114;28;20063;-75
2023/06/20 08:32:08;;;;;;;20.10;13.00;;;;;;;;;;5095310;28;20370;-75
2023/06/20 08:34:33;;;;;;;18.50;12.52;;;;;;;;;;5095139;28;20512;-73
2023/06/20 08:36:59;;;;;;;19.00;11.82;;;;;;;;;;5094693;28;20044;-75
2023/06/20 08:39:24;;;;;;;17.38;11.43;;;;;;;;;;5103084;28;20037;-75
2023/06/20 08:41:50;;;;;;;23.48;12.90;;;;;;;;;;5115247;28;20035;-76
2023/06/20 08:44:16;;;;;;;19.80;12.25;;;;;;;;;;5115390;28;20035;-75
2023/06/20 08:46:41;;;;;;;25.08;12.45;;;;;;;;;;5114956;28;20047;-75
2023/06/20 08:49:07;;;;;;;22.00;11.85;;;;;;;;;;5115135;28;20032;-75
2023/06/20 08:51:37;;;;;;;19.08;12.15;;;;;;;;;;5114820;28;20123;-75
2023/06/20 08:54:02;;;;;;;;;;;;;;;;;;5095131;28;20481;-74
2023/06/20 08:56:28;;;;;;;22.00;11.93;;;;;;;;;;5094450;28;19918;-75
2023/06/20 08:58:53;;;;;;;20.30;11.88;;;;;;;;;;5094717;28;20027;-69
2023/06/20 09:01:19;;;;;;;17.35;12.05;;;;;;;;;;5094453;28;20531;-71
2023/06/20 09:03:44;;;;;;;18.27;11.80;;;;;;;;;;5094353;28;20461;-71
2023/06/20 09:06:11;;;;;;;15.02;11.07;;;;;;;;;;5094288;28;20020;-70
2023/06/20 09:08:40;;;;;;;22.20;15.52;;;;;;;;;;5094267;28;20043;-74
2023/06/20 09:11:12;;;;;;;15.73;11.10;;;;;;;;;;5094500;28;20143;-72
2023/06/20 09:13:38;;;;;;;14.07;12.02;;;;;;;;;;5093732;28;20031;-74
2023/06/20 09:16:13;;;;;;;14.55;12.32;;;;;;;;;;5094269;28;20389;-75
2023/06/20 09:18:40;;;;;;;16.83;12.55;;;;;;;;;;5094196;28;20047;-75
2023/06/20 09:21:13;;;;;;;17.30;13.25;;;;;;;;;;5094123;28;20028;-74
2023/06/20 09:23:39;;;;;;;16.42;12.00;;;;;;;;;;5093917;28;20093;-74
2023/06/20 09:26:16;;;;;;;13.77;11.70;;;;;;;;;;5094200;28;20462;-74
2023/06/20 09:28:41;;;;;;;14.00;12.15;;;;;;;;;;5093992;28;20020;-75
2023/06/20 09:31:07;;;;;;;14.90;10.57;;;;;;;;;;5093739;28;20031;-67
2023/06/20 09:33:36;;;;;;;14.38;10.43;;;;;;;;;;5093801;28;20077;-71
2023/06/20 09:36:14;;;;;;;11.93;9.45;;;;;;;;;;5093825;28;20496;-71
2023/06/20 09:38:44;;;;;;;15.40;9.95;;;;;;;;;;5095753;28;20052;-72
2023/06/20 09:41:14;;;;;;;12.55;9.35;;;;;;;;;;5114279;28;20103;-67
2023/06/20 09:43:39;;;;;;;12.55;9.85;;;;;;;;;;5114230;28;20465;-70
2023/06/20 09:46:05;;;;;;;10.63;8.60;;;;;;;;;;5113942;28;20131;-68
2023/06/20 09:48:32;;;;;;;11.88;10.43;;;;;;;;;;5114111;28;20109;-66
2023/06/20 09:50:59;;;;;;;14.07;10.40;;;;;;;;;;5113633;28;20073;-67
2023/06/20 09:53:44;;;;;;;12.73;9.95;;;;;;;;;;5099056;28;20024;-67
2023/06/20 09:56:11;;;;;;;14.38;10.05;;;;;;;;;;5093659;28;20024;-67
2023/06/20 09:58:42;;;;;;;15.10;10.52;;;;;;;;;;5093420;28;20039;-72
2023/06/20 10:01:13;;;;;;;11.85;9.57;;;;;;;;;;5093431;28;20028;-71
2023/06/20 10:03:39;;;;;;;10.60;9.38;;;;;;;;;;5093141;28;20043;-67
2023/06/20 10:06:05;;;;;;;16.58;9.27;;;;;;;;;;5075184;28;20028;-69
2023/06/20 10:08:32;;;;;;;10.13;8.10;;;;;;;;;;5074712;28;20034;-72
2023/06/20 10:10:58;;;;;;;12.80;8.63;;;;;;;;;;5093302;28;20089;-71
2023/06/20 10:13:24;;;;;;;9.40;8.05;;;;;;;;;;5093313;28;20027;-67
2023/06/20 10:15:50;;;;;;;9.95;7.68;;;;;;;;;;5093058;28;20051;-70
2023/06/20 10:18:34;;;;;;;11.93;7.40;;;;;;;;;;5093106;28;20042;-67
2023/06/20 10:21:04;;;;;;;8.50;7.60;;;;;;;;;;5093182;28;20434;-66
2023/06/20 10:23:31;;;;;;;8.27;7.40;;;;;;;;;;5092860;28;20032;-66
2023/06/20 10:25:58;;;;;;;9.15;7.40;;;;;;;;;;5092272;28;20047;-69
2023/06/20 10:28:24;;;;;;;11.07;7.75;;;;;;;;;;5092966;28;20059;-70
2023/06/20 10:30:49;;;;;;;8.50;7.70;;;;;;;;;;5092886;28;20032;-67
2023/06/20 10:33:17;;;;;;;12.82;8.40;;;;;;;;;;5092779;28;20381;-65
2023/06/20 10:35:56;;;;;;;8.82;7.90;;;;;;;;;;5092584;28;20035;-68
2023/06/20 10:38:21;;;;;;;10.57;7.30;;;;;;;;;;5092616;28;20020;-65
2023/06/20 10:40:47;;;;;;;8.27;7.40;;;;;;;;;;5094268;28;20126;-71
2023/06/20 10:43:17;;;;;;;11.07;7.82;;;;;;;;;;5112995;28;20026;-71
2023/06/20 10:45:53;;;;;;;8.48;7.68;;;;;;;;;;5112757;28;20500;-71
2023/06/20 10:48:20;;;;;;;8.25;7.45;;;;;;;;;;5112717;28;20032;-68
2023/06/20 10:50:46;;;;;;;10.35;7.15;;;;;;;;;;5112921;28;20034;-72
2023/06/20 10:53:13;;;;;;;9.63;8.02;;;;;;;;;;5099955;28;20020;-70
2023/06/20 10:55:39;;;;;;;10.88;7.80;;;;;;;;;;5092542;28;20067;-68
2023/06/20 10:58:04;;;;;;;11.52;8.43;;;;;;;;;;5092700;28;20441;-70
2023/06/20 11:00:29;;;;;;;8.85;7.53;;;;;;;;;;5092550;28;20028;-71
2023/06/20 11:02:55;;;;;;;10.82;8.15;;;;;;;;;;5092188;28;20106;-73
2023/06/20 11:05:29;;;;;;;11.02;8.10;;;;;;;;;;5092498;28;20078;-70
2023/06/20 11:07:59;;;;;;;9.10;8.15;;;;;;;;;;5092563;28;20084;-70
2023/06/20 11:10:34;;;;;;;11.50;8.77;;;;;;;;;;5092378;28;20028;-69
2023/06/20 11:13:02;;;;;;;11.68;9.00;;;;;;;;;;5093293;28;20446;-72
2023/06/20 11:15:34;;;;;;;13.60;8.88;;;;;;;;;;5094484;28;20024;-75
2023/06/20 11:18:04;;;;;;;9.85;8.35;;;;;;;;;;5092311;28;20418;-76
2023/06/20 11:20:36;;;;;;;12.07;8.15;;;;;;;;;;5092317;28;20092;-76
2023/06/20 11:23:06;;;;;;;10.95;7.13;;;;;;;;;;5092160;28;20225;-69
2023/06/20 11:25:37;;;;;;;11.98;8.00;;;;;;;;;;5092266;28;20118;-73
2023/06/20 11:28:10;;;;;;;10.50;7.43;;;;;;;;;;5092011;28;20510;-74
2023/06/20 11:30:38;;;;;;;12.60;7.05;;;;;;;;;;5092013;28;20028;-75
2023/06/20 11:33:05;;;;;;;10.43;7.40;;;;;;;;;;5092199;28;20081;-76
2023/06/20 11:36:00;;;;;;;10.95;6.65;;;;;;;;;;5092033;28;20103;-71
2023/06/20 11:38:29;;;;;;;14.38;8.50;;;;;;;;;;5074478;28;20036;-73
2023/06/20 11:41:06;;;;;;;8.90;6.78;;;;;;;;;;5116685;28;20034;-71
2023/06/20 11:43:40;;;;;;;9.35;7.00;;;;;;;;;;5116564;28;20469;-69
2023/06/20 11:46:06;;;;;;;9.48;7.00;;;;;;;;;;5116255;28;20130;-72
2023/06/20 11:48:32;;;;;;;11.32;7.03;;;;;;;;;;5116292;28;20031;-73
2023/06/20 11:51:00;;;;;;;10.23;7.10;;;;;;;;;;5116499;28;20404;-73
2023/06/20 11:53:35;;;;;;;10.23;7.07;;;;;;;;;;5101153;28;20602;-73
2023/06/20 11:56:15;;;;;;;10.00;7.43;;;;;;;;;;5095701;28;20043;-73
2023/06/20 11:58:44;;;;;;;10.88;7.15;;;;;;;;;;5095775;28;20036;-70
2023/06/20 12:01:17;;;;;;;10.25;7.32;;;;;;;;;;5095517;28;20032;-71
2023/06/20 12:03:44;;;;;;;11.20;8.50;;;;;;;;;;5095579;28;20473;-71
2023/06/20 12:06:28;;;;;;;13.02;8.32;;;;;;;;;;5095764;28;20028;-73
2023/06/20 12:08:57;;;;;;;11.30;7.80;;;;;;;;;;5095497;28;20067;-74
2023/06/20 12:11:23;;;;;;;11.30;8.05;;;;;;;;;;5095744;28;20027;-73
2023/06/20 12:13:48;;;;;;;16.95;8.45;;;;;;;;;;5095420;28;20062;-73
2023/06/20 12:16:14;;;;;;;12.30;9.00;;;;;;;;;;5095409;28;20077;-73
2023/06/20 12:18:39;;;;;;;15.80;9.77;;;;;;;;;;5095452;28;20039;-74
2023/06/20 12:21:05;;;;;;;15.57;11.63;;;;;;;;;;5095482;28;20020;-74
2023/06/20 12:23:31;;;;;;;17.52;12.25;;;;;;;;;;5095166;28;20063;-69
2023/06/20 12:25:57;;;;;;;13.95;12.48;;;;;;;;;;5095266;28;20078;-74
2023/06/20 12:28:23;;;;;;;15.27;12.48;;;;;;;;;;5094976;28;20488;-73
2023/06/20 12:30:48;;;;;;;16.80;12.73;;;;;;;;;;5095261;28;20032;-73
2023/06/20 12:33:14;;;;;;;14.35;12.90;;;;;;;;;;5095399;28;20058;-74
2023/06/20 12:35:39;;;;;;;17.33;12.70;;;;;;;;;;5094935;28;20028;-73
2023/06/20 12:38:05;;;;;;;15.05;13.13;;;;;;;;;;5076943;28;20084;-72
2023/06/20 12:40:30;;;;;;;13.93;12.40;;;;;;;;;;5112497;28;20041;-73
2023/06/20 12:42:56;;;;;;;18.25;12.25;;;;;;;;;;5115226;28;20393;-74
2023/06/20 12:45:21;;;;;;;16.65;12.55;;;;;;;;;;5115240;28;20370;-72
2023/06/20 12:47:47;;;;;;;16.65;14.15;;;;;;;;;;5114260;28;20031;-74
2023/06/20 12:50:12;;;;;;;14.48;12.50;;;;;;;;;;5115424;28;20087;-73
2023/06/20 12:52:38;;;;;;;18.27;13.18;;;;;;;;;;5106720;28;20031;-73
2023/06/20 12:55:05;;;;;;;16.88;12.35;;;;;;;;;;5094856;28;20027;-74
2023/06/20 12:57:32;;;;;;;16.13;12.15;;;;;;;;;;5094263;28;20466;-72
2023/06/20 12:59:58;;;;;;;13.93;12.20;;;;;;;;;;5094731;28;20050;-77
2023/06/20 13:02:24;;;;;;;15.32;13.45;;;;;;;;;;5094548;28;20427;-76
2023/06/20 13:04:53;;;;;;;17.85;12.85;;;;;;;;;;5094439;28;20101;-77
2023/06/20 13:07:20;;;;;;;17.08;12.75;;;;;;;;;;5094497;28;20032;-76
2023/06/20 13:09:50;;;;;;;17.30;12.40;;;;;;;;;;5094322;28;20465;-76
2023/06/20 13:12:16;;;;;;;15.20;13.60;;;;;;;;;;5094217;28;20024;-76
2023/06/20 13:14:43;;;;;;;18.58;14.50;;;;;;;;;;5094346;28;20051;-75
2023/06/20 13:17:09;;;;;;;18.05;13.50;;;;;;;;;;5094358;28;20069;-77
2023/06/20 13:19:35;;;;;;;22.27;13.63;;;;;;;;;;5094335;28;20047;-76
2023/06/20 13:22:01;;;;;;;15.77;13.93;;;;;;;;;;5094367;28;20024;-76
2023/06/20 13:24:27;;;;;;;17.08;14.60;;;;;;;;;;5093793;28;20028;-76
2023/06/20 13:26:52;;;;;;;18.88;13.70;;;;;;;;;;5093799;28;20481;-74
2023/06/20 13:29:17;;;;;;;16.30;13.68;;;;;;;;;;5094151;28;20466;-73
2023/06/20 13:31:43;;;;;;;17.35;14.02;;;;;;;;;;5094090;28;20031;-71
2023/06/20 13:34:09;;;;;;;18.92;14.02;;;;;;;;;;5094180;28;20022;-76
2023/06/20 13:36:34;;;;;;;19.23;14.38;;;;;;;;;;5093938;28;20021;-76
2023/06/20 13:39:02;;;;;;;18.65;14.82;;;;;;;;;;5080450;28;20453;-76
2023/06/20 13:41:28;;;;;;;19.08;14.68;;;;;;;;;;5114455;28;20027;-75
2023/06/20 13:43:54;;;;;;;20.70;14.90;;;;;;;;;;5114278;28;20084;-75
2023/06/20 13:46:20;;;;;;;18.50;14.55;;;;;;;;;;5114131;28;20062;-76
2023/06/20 13:48:47;;;;;;;19.13;14.35;;;;;;;;;;5114123;28;20031;-76
2023/06/20 13:51:14;;;;;;;19.25;15.85;;;;;;;;;;5114288;28;20022;-76
2023/06/20 13:53:40;;;;;;;17.48;15.52;;;;;;;;;;5096887;28;20099;-76
2023/06/20 13:56:06;;;;;;;20.23;16.35;;;;;;;;;;5093407;28;20063;-76
2023/06/20 13:58:31;;;;;;;20.10;16.73;;;;;;;;;;5093441;28;20053;-74
2023/06/20 14:00:57;;;;;;;20.30;16.35;;;;;;;;;;5093353;28;20016;-75
2023/06/20 14:03:22;;;;;;;17.83;15.57;;;;;;;;;;5093269;28;20020;-71
2023/06/20 14:05:47;;;;;;;22.83;17.02;;;;;;;;;;5093416;28;20465;-70
2023/06/20 14:08:13;;;;;;;22.45;17.63;;;;;;;;;;5093518;28;20043;-71
2023/06/20 14:10:39;;;;;;;19.88;16.65;;;;;;;;;;5093076;28;20031;-69
2023/06/20 14:13:05;;;;;;;43.40;20.10;;;;;;;;;;5093463;28;20020;-72
2023/06/20 14:15:30;;;;;;;40.00;19.63;;;;;;;;;;5093301;28;20024;-75
2023/06/20 14:17:59;;;;;;;33.97;20.10;;;;;;;;;;5093473;28;20386;-76
2023/06/20 14:20:24;;;;;;;20.05;17.85;;;;;;;;;;5093311;28;20043;-76
2023/06/20 14:22:49;;;;;;;22.20;16.85;;;;;;;;;;5093110;28;20504;-76